createdAt,value
2023-05-08T00:00:19.275Z,95064.91
2023-05-08T00:02:48.460Z,95053.09
2023-05-08T00:05:17.960Z,95051.41
2023-05-08T00:07:47.070Z,95059.91
2023-05-08T00:10:16.404Z,95059.47
2023-05-08T00:12:47.366Z,95056.63
2023-05-08T00:15:16.500Z,95065.44
2023-05-08T00:17:45.950Z,95063.88
2023-05-08T00:20:15.607Z,95073.25
2023-05-08T00:22:44.878Z,95059.16
2023-05-08T00:25:14.084Z,95065.25
2023-05-08T00:27:43.448Z,95072.47
2023-05-08T00:30:15.032Z,95069.28
2023-05-08T00:32:44.278Z,95061.22
2023-05-08T00:35:13.470Z,95067.81
2023-05-08T00:37:44.040Z,95067.22
2023-05-08T00:40:14.065Z,95071.25
2023-05-08T00:42:43.536Z,95076.41
2023-05-08T00:45:14.229Z,95073.44
2023-05-08T00:47:44.066Z,95075.84
2023-05-08T00:50:16.592Z,95076.91
2023-05-08T00:52:45.881Z,95075.16
2023-05-08T00:55:15.205Z,95081.69
2023-05-08T00:57:45.599Z,95079.75
2023-05-08T01:00:18.530Z,95083.91
2023-05-08T01:02:48.597Z,95084.97
2023-05-08T01:05:17.927Z,95090.25
2023-05-08T01:07:47.350Z,95077.75
2023-05-08T01:10:16.651Z,95090.00
2023-05-08T01:12:57.918Z,95083.28
2023-05-08T01:15:36.534Z,95086.75
2023-05-08T01:18:23.029Z,95088.91
2023-05-08T01:20:58.390Z,95091.34
2023-05-08T01:24:15.063Z,95084.44
2023-05-08T01:27:09.857Z,95082.06
2023-05-08T01:30:26.983Z,95080.78
2023-05-08T01:33:03.768Z,95075.72
2023-05-08T01:35:44.969Z,95075.38
2023-05-08T01:38:21.151Z,95068.56
2023-05-08T01:40:55.078Z,95070.16
2023-05-08T01:43:30.626Z,95079.84
2023-05-08T01:46:05.782Z,95072.59
2023-05-08T01:48:40.826Z,95073.59
2023-05-08T01:51:15.888Z,95064.16
2023-05-08T01:53:49.219Z,95080.13
2023-05-08T01:56:19.779Z,95074.94
2023-05-08T01:58:51.701Z,95076.00
2023-05-08T02:01:24.583Z,95077.06
2023-05-08T02:03:57.443Z,95074.56
2023-05-08T02:06:28.591Z,95078.81
2023-05-08T02:08:59.320Z,95079.97
2023-05-08T02:11:29.395Z,95078.84
2023-05-08T02:14:01.824Z,95075.03
2023-05-08T02:16:32.614Z,95078.13
2023-05-08T02:19:04.898Z,95080.44
2023-05-08T02:21:35.343Z,95076.06
2023-05-08T02:24:06.173Z,95080.31
2023-05-08T02:26:37.196Z,95075.91
2023-05-08T02:29:08.256Z,95083.50
2023-05-08T02:31:38.185Z,95086.97
2023-05-08T02:34:11.191Z,95081.78
2023-05-08T02:36:44.588Z,95080.25
2023-05-08T02:39:16.724Z,95077.97
2023-05-08T02:41:46.606Z,95087.13
2023-05-08T02:44:17.421Z,95079.56
2023-05-08T02:46:51.430Z,95074.88
2023-05-08T02:49:31.557Z,95077.50
2023-05-08T02:52:10.263Z,95077.50
2023-05-08T02:54:45.208Z,95069.78
2023-05-08T02:57:24.492Z,95074.88
2023-05-08T03:00:00.158Z,95071.41
2023-05-08T03:02:41.047Z,95075.66
2023-05-08T03:05:17.163Z,95076.22
2023-05-08T03:07:48.998Z,95076.09
2023-05-08T03:10:20.254Z,95076.44
2023-05-08T03:12:53.600Z,95077.25
2023-05-08T03:15:28.010Z,95077.72
2023-05-08T03:18:02.258Z,95077.78
2023-05-08T03:20:39.039Z,95075.72
2023-05-08T03:23:10.977Z,95075.50
2023-05-08T03:25:43.873Z,95074.66
2023-05-08T03:28:15.016Z,95073.66
2023-05-08T03:30:45.283Z,95077.44
2023-05-08T03:33:19.050Z,95083.06
2023-05-08T03:35:50.445Z,95080.53
2023-05-08T03:38:20.225Z,95077.91
2023-05-08T03:40:49.709Z,95084.22
2023-05-08T03:43:21.879Z,95082.31
2023-05-08T03:45:52.770Z,95086.41
2023-05-08T03:48:24.195Z,95085.88
2023-05-08T03:50:55.642Z,95094.38
2023-05-08T03:53:25.204Z,95087.28
2023-05-08T03:55:54.649Z,95093.03
2023-05-08T03:58:30.067Z,95093.72
2023-05-08T04:01:07.371Z,95106.41
2023-05-08T04:03:56.135Z,95105.34
2023-05-08T04:06:45.891Z,95101.25
2023-05-08T04:09:30.489Z,95104.38
2023-05-08T04:12:06.697Z,95107.00
2023-05-08T04:14:44.858Z,95108.31
2023-05-08T04:17:17.668Z,95100.91
2023-05-08T04:19:53.189Z,95111.50
2023-05-08T04:22:27.167Z,95106.66
2023-05-08T04:25:00.211Z,95107.22
2023-05-08T04:27:30.870Z,95102.41
2023-05-08T04:30:00.285Z,95104.69
2023-05-08T04:32:38.363Z,95102.13
2023-05-08T04:35:10.475Z,95099.13
2023-05-08T04:37:42.894Z,95101.06
2023-05-08T04:40:13.167Z,95096.78
2023-05-08T04:42:47.622Z,95089.75
2023-05-08T04:45:20.164Z,95098.13
2023-05-08T04:47:49.500Z,95100.25
2023-05-08T04:50:18.841Z,95095.22
2023-05-08T04:52:49.942Z,95096.56
2023-05-08T04:55:19.520Z,95098.75
2023-05-08T04:57:49.786Z,95098.22
2023-05-08T05:00:19.824Z,95097.19
2023-05-08T05:02:49.711Z,95097.63
2023-05-08T05:05:19.384Z,95097.31
2023-05-08T05:07:50.356Z,95100.19
2023-05-08T05:10:21.583Z,95099.53
2023-05-08T05:12:50.772Z,95102.19
2023-05-08T05:15:20.689Z,95104.72
2023-05-08T05:17:50.180Z,95110.19
2023-05-08T05:20:19.507Z,95107.78
2023-05-08T05:22:51.118Z,95105.25
2023-05-08T05:25:20.512Z,95098.56
2023-05-08T05:27:50.011Z,95096.38
2023-05-08T05:30:19.386Z,95094.38
2023-05-08T05:32:49.251Z,95099.94
2023-05-08T05:35:19.318Z,95102.13
2023-05-08T05:37:48.670Z,95098.56
2023-05-08T05:40:20.479Z,95100.38
2023-05-08T05:42:51.423Z,95097.03
2023-05-08T05:45:21.770Z,95101.94
2023-05-08T05:47:54.456Z,95093.31
2023-05-08T05:50:27.487Z,95099.53
2023-05-08T05:52:58.457Z,95088.91
2023-05-08T05:55:30.345Z,95096.66
2023-05-08T05:58:00.862Z,95092.94
2023-05-08T06:00:31.043Z,95098.28
2023-05-08T06:03:02.657Z,95092.91
2023-05-08T06:05:32.951Z,95083.56
2023-05-08T06:08:02.152Z,95091.59
2023-05-08T06:10:33.627Z,95089.44
2023-05-08T06:13:03.235Z,95091.59
2023-05-08T06:15:32.836Z,95095.59
2023-05-08T06:18:02.090Z,95102.56
2023-05-08T06:20:31.359Z,95098.28
2023-05-08T06:23:00.598Z,95098.81
2023-05-08T06:25:29.889Z,95104.97
2023-05-08T06:28:00.501Z,95101.75
2023-05-08T06:30:29.521Z,95113.22
2023-05-08T06:32:58.663Z,95107.28
2023-05-08T06:35:27.935Z,95109.66
2023-05-08T06:37:57.575Z,95115.72
2023-05-08T06:40:26.653Z,95111.94
2023-05-08T06:42:55.737Z,95120.88
2023-05-08T06:45:26.461Z,95124.63
2023-05-08T06:47:55.581Z,95127.28
2023-05-08T06:50:24.907Z,95117.78
2023-05-08T06:52:54.078Z,95117.56
2023-05-08T06:55:23.356Z,95115.88
2023-05-08T06:57:52.737Z,95117.03
2023-05-08T07:00:22.282Z,95115.63
2023-05-08T07:02:53.743Z,95117.44
2023-05-08T07:05:23.254Z,95118.75
2023-05-08T07:07:54.365Z,95113.22
2023-05-08T07:10:23.920Z,95121.22
2023-05-08T07:12:53.109Z,95121.09
2023-05-08T07:15:26.445Z,95115.72
2023-05-08T07:17:57.558Z,95125.22
2023-05-08T07:20:26.820Z,95130.50
2023-05-08T07:22:56.138Z,95125.38
2023-05-08T07:25:25.428Z,95131.84
2023-05-08T07:27:54.657Z,95129.84
2023-05-08T07:30:24.144Z,95134.59
2023-05-08T07:32:53.396Z,95136.75
2023-05-08T07:35:24.083Z,95137.03
2023-05-08T07:37:53.217Z,95122.75
2023-05-08T07:40:22.383Z,95124.06
2023-05-08T07:42:51.454Z,95132.56
2023-05-08T07:45:20.684Z,95121.59
2023-05-08T07:47:55.409Z,95122.31
2023-05-08T07:50:27.118Z,95118.63
2023-05-08T07:52:56.317Z,95116.03
2023-05-08T07:55:25.343Z,95117.94
2023-05-08T07:57:54.592Z,95106.16
2023-05-08T08:00:24.071Z,95114.16
2023-05-08T08:02:53.745Z,95116.63
2023-05-08T08:05:23.209Z,95113.59
2023-05-08T08:07:53.992Z,95114.09
2023-05-08T08:10:23.253Z,95110.69
2023-05-08T08:12:52.403Z,95103.78
2023-05-08T08:15:21.660Z,95102.03
2023-05-08T08:17:50.934Z,95099.41
2023-05-08T08:20:20.334Z,95098.28
2023-05-08T08:22:49.536Z,95086.31
2023-05-08T08:25:20.066Z,95091.38
2023-05-08T08:27:49.567Z,95081.81
2023-05-08T08:30:19.017Z,95088.59
2023-05-08T08:32:48.631Z,95068.28
2023-05-08T08:35:18.156Z,95069.72
2023-05-08T08:37:47.502Z,95065.53
2023-05-08T08:40:16.732Z,95054.34
2023-05-08T08:42:47.606Z,95047.31
2023-05-08T08:45:17.266Z,95047.31
2023-05-08T08:47:48.427Z,95042.38
2023-05-08T08:50:21.449Z,95038.91
2023-05-08T08:52:56.748Z,95034.63
2023-05-08T08:55:27.866Z,95044.66
2023-05-08T08:58:09.151Z,95047.88
2023-05-08T09:00:38.899Z,95066.28
2023-05-08T09:03:09.050Z,95074.47
2023-05-08T09:05:39.098Z,95074.84
2023-05-08T09:08:08.568Z,95067.25
2023-05-08T09:10:38.197Z,95065.66
2023-05-08T09:13:08.794Z,95069.94
2023-05-08T09:15:38.367Z,95070.84
2023-05-08T09:18:07.987Z,95065.53
2023-05-08T09:20:37.479Z,95066.72
2023-05-08T09:23:08.188Z,95068.28
2023-05-08T09:25:44.469Z,95066.34
2023-05-08T09:28:22.926Z,95062.25
2023-05-08T09:30:54.142Z,95057.66
2023-05-08T09:33:25.609Z,95053.88
2023-05-08T09:35:55.148Z,95055.19
2023-05-08T09:38:44.259Z,95056.69
2023-05-08T09:41:15.849Z,95048.41
2023-05-08T09:44:01.901Z,95047.94
2023-05-08T09:46:32.089Z,95049.06
2023-05-08T09:49:02.805Z,95051.50
2023-05-08T09:51:33.652Z,95045.72
2023-05-08T09:54:06.777Z,95042.13
2023-05-08T09:56:37.510Z,95034.78
2023-05-08T09:59:24.813Z,95037.72
2023-05-08T10:01:54.199Z,95024.69
2023-05-08T10:04:36.170Z,95030.50
2023-05-08T10:07:06.102Z,95023.00
2023-05-08T10:09:46.995Z,95020.84
2023-05-08T10:12:22.818Z,95022.75
2023-05-08T10:14:54.152Z,95021.44
2023-05-08T10:17:29.763Z,95025.47
2023-05-08T10:20:02.679Z,95025.59
2023-05-08T10:22:37.761Z,95025.75
2023-05-08T10:25:12.349Z,95024.44
2023-05-08T10:27:47.182Z,95011.78
2023-05-08T10:30:20.061Z,95022.31
2023-05-08T10:32:55.500Z,95011.59
2023-05-08T10:35:25.020Z,95017.75
2023-05-08T10:37:58.040Z,95016.53
2023-05-08T10:40:27.429Z,95018.28
2023-05-08T10:42:58.182Z,95013.97
2023-05-08T10:45:30.433Z,95004.66
2023-05-08T10:48:10.434Z,95000.31
2023-05-08T10:50:55.098Z,94994.16
2023-05-08T10:53:33.445Z,95002.22
2023-05-08T10:56:02.845Z,94984.53
2023-05-08T10:58:33.427Z,94989.69
2023-05-08T11:01:18.359Z,94973.06
2023-05-08T11:03:51.013Z,94979.56
2023-05-08T11:06:45.228Z,94964.53
2023-05-08T11:09:22.996Z,94955.47
2023-05-08T11:12:05.503Z,94958.84
2023-05-08T11:14:37.488Z,94949.66
2023-05-08T11:17:10.174Z,94945.31
2023-05-08T11:19:40.066Z,94940.53
2023-05-08T11:22:27.364Z,94942.59
2023-05-08T11:25:01.872Z,94936.53
2023-05-08T11:27:40.465Z,94942.19
2023-05-08T11:30:27.202Z,94935.91
2023-05-08T11:33:33.107Z,94932.69
2023-05-08T11:36:13.827Z,94933.47
2023-05-08T11:38:44.197Z,94934.38
2023-05-08T11:41:23.335Z,94931.09
2023-05-08T11:44:15.500Z,94929.38
2023-05-08T11:46:50.456Z,94926.94
2023-05-08T11:49:27.100Z,94932.78
2023-05-08T11:52:01.138Z,94934.34
2023-05-08T11:54:32.540Z,94929.31
2023-05-08T11:57:02.021Z,94931.03
2023-05-08T11:59:36.303Z,94938.53
2023-05-08T12:02:09.239Z,94926.13
2023-05-08T12:04:47.781Z,94925.19
2023-05-08T12:07:17.811Z,94930.75
2023-05-08T12:09:49.115Z,94924.88
2023-05-08T12:12:18.289Z,94916.91
2023-05-08T12:14:51.778Z,94930.91
2023-05-08T12:17:21.369Z,94916.56
2023-05-08T12:19:56.740Z,94913.25
2023-05-08T12:22:26.034Z,94912.59
2023-05-08T12:24:55.370Z,94901.16
2023-05-08T12:27:26.782Z,94906.84
2023-05-08T12:29:56.060Z,94903.19
2023-05-08T12:32:27.133Z,94903.84
2023-05-08T12:34:59.774Z,94908.97
2023-05-08T12:37:29.312Z,94903.09
2023-05-08T12:39:58.919Z,94911.22
2023-05-08T12:42:43.244Z,94902.91
2023-05-08T12:45:19.245Z,94899.53
2023-05-08T12:47:49.856Z,94910.63
2023-05-08T12:50:22.691Z,94906.94
2023-05-08T12:52:52.071Z,94909.84
2023-05-08T12:55:23.211Z,94917.09
2023-05-08T12:58:00.640Z,94906.06
2023-05-08T13:00:38.533Z,94895.91
2023-05-08T13:03:09.026Z,94911.00
2023-05-08T13:05:44.363Z,94903.44
2023-05-08T13:08:14.201Z,94898.41
2023-05-08T13:10:47.545Z,94910.25
2023-05-08T13:13:18.212Z,94917.56
2023-05-08T13:15:48.273Z,94929.13
2023-05-08T13:18:18.154Z,94922.72
2023-05-08T13:20:49.200Z,94928.06
2023-05-08T13:23:18.641Z,94931.16
2023-05-08T13:25:48.095Z,94931.38
2023-05-08T13:28:17.546Z,94934.75
2023-05-08T13:30:46.974Z,94935.84
2023-05-08T13:33:16.312Z,94929.53
2023-05-08T13:35:46.122Z,94938.88
2023-05-08T13:38:16.943Z,94933.94
2023-05-08T13:40:46.280Z,94928.72
2023-05-08T13:43:15.422Z,94922.22
2023-05-08T13:45:44.869Z,94925.56
2023-05-08T13:48:14.445Z,94927.91
2023-05-08T13:50:43.853Z,94924.00
2023-05-08T13:53:13.156Z,94926.75
2023-05-08T13:55:44.088Z,94933.06
2023-05-08T13:58:13.727Z,94926.81
2023-05-08T14:00:43.171Z,94926.44
2023-05-08T14:03:12.591Z,94927.22
2023-05-08T14:05:41.851Z,94929.31
2023-05-08T14:08:11.721Z,94929.13
2023-05-08T14:10:41.101Z,94926.81
2023-05-08T14:13:11.627Z,94933.94
2023-05-08T14:15:42.286Z,94940.69
2023-05-08T14:18:11.735Z,94941.56
2023-05-08T14:20:41.457Z,94950.38
2023-05-08T14:23:11.450Z,94949.88
2023-05-08T14:25:40.573Z,94955.19
2023-05-08T14:28:11.017Z,94956.84
2023-05-08T14:30:40.349Z,94958.75
2023-05-08T14:33:09.472Z,94963.13
2023-05-08T14:35:38.707Z,94969.59
2023-05-08T14:38:08.218Z,94968.63
2023-05-08T14:40:37.399Z,94965.69
2023-05-08T14:43:06.860Z,94971.28
2023-05-08T14:45:37.895Z,94972.25
2023-05-08T14:48:08.350Z,94982.97
2023-05-08T14:50:37.836Z,94976.38
2023-05-08T14:53:07.798Z,94988.13
2023-05-08T14:55:37.435Z,94985.91
2023-05-08T14:58:06.900Z,94987.66
2023-05-08T15:00:37.842Z,94990.59
2023-05-08T15:03:07.266Z,94991.28
2023-05-08T15:05:36.720Z,94990.31
2023-05-08T15:08:06.322Z,94995.91
2023-05-08T15:10:35.670Z,95000.38
2023-05-08T15:13:05.087Z,94997.66
2023-05-08T15:15:34.569Z,94991.72
2023-05-08T15:18:05.642Z,95009.38
2023-05-08T15:20:34.955Z,94999.06
2023-05-08T15:23:04.148Z,95001.69
2023-05-08T15:25:33.783Z,95005.56
2023-05-08T15:28:03.190Z,95000.19
2023-05-08T15:30:32.373Z,95005.38
2023-05-08T15:33:01.718Z,94994.09
2023-05-08T15:35:32.699Z,94995.06
2023-05-08T15:38:06.123Z,94992.22
2023-05-08T15:40:35.808Z,94985.19
2023-05-08T15:43:04.964Z,94996.22
2023-05-08T15:45:34.386Z,94987.03
2023-05-08T15:48:04.186Z,94995.25
2023-05-08T15:50:35.084Z,94984.69
2023-05-08T15:53:05.150Z,94992.63
2023-05-08T15:55:34.396Z,94987.94
2023-05-08T15:58:03.562Z,94987.91
2023-05-08T16:00:44.091Z,94984.19
2023-05-08T16:03:15.044Z,94983.72
2023-05-08T16:05:45.790Z,94991.03
2023-05-08T16:08:15.247Z,94985.84
2023-05-08T16:10:44.474Z,94997.47
2023-05-08T16:13:13.907Z,95000.63
2023-05-08T16:15:43.708Z,95008.16
2023-05-08T16:18:13.425Z,95012.56
2023-05-08T16:20:45.223Z,95012.06
2023-05-08T16:23:15.430Z,95016.66
2023-05-08T16:25:44.826Z,95021.00
2023-05-08T16:28:14.141Z,95025.03
2023-05-08T16:30:46.709Z,95026.00
2023-05-08T16:33:16.227Z,95019.41
2023-05-08T16:35:46.875Z,95026.56
2023-05-08T16:38:16.253Z,95035.66
2023-05-08T16:40:46.226Z,95027.19
2023-05-08T16:43:15.561Z,95036.53
2023-05-08T16:45:46.672Z,95036.81
2023-05-08T16:48:18.941Z,95044.97
2023-05-08T16:50:49.702Z,95046.84
2023-05-08T16:53:19.060Z,95043.53
2023-05-08T16:55:48.310Z,95048.69
2023-05-08T16:58:17.649Z,95049.56
2023-05-08T17:00:46.976Z,95059.19
2023-05-08T17:03:16.704Z,95065.38
2023-05-08T17:05:46.169Z,95071.53
2023-05-08T17:08:16.760Z,95065.16
2023-05-08T17:10:46.081Z,95069.69
2023-05-08T17:13:15.405Z,95075.31
2023-05-08T17:15:44.831Z,95074.50
2023-05-08T17:18:13.976Z,95076.09
2023-05-08T17:20:43.259Z,95081.47
2023-05-08T17:23:13.110Z,95080.38
2023-05-08T17:25:43.870Z,95083.31
2023-05-08T17:28:13.157Z,95083.59
2023-05-08T17:30:42.606Z,95092.41
2023-05-08T17:33:11.916Z,95079.59
2023-05-08T17:35:41.413Z,95096.16
2023-05-08T17:38:11.009Z,95103.09
2023-05-08T17:40:40.611Z,95101.50
2023-05-08T17:43:12.390Z,95101.50
2023-05-08T17:45:41.819Z,95112.19
2023-05-08T17:48:11.530Z,95112.19
2023-05-08T17:50:43.921Z,95110.28
2023-05-08T17:53:14.797Z,95109.25
2023-05-08T17:55:47.575Z,95118.03
2023-05-08T17:58:21.530Z,95114.03
2023-05-08T18:00:51.233Z,95119.66
2023-05-08T18:03:20.855Z,95121.78
2023-05-08T18:05:57.208Z,95121.53
2023-05-08T18:08:29.311Z,95123.63
2023-05-08T18:10:58.688Z,95118.03
2023-05-08T18:13:33.310Z,95127.41
2023-05-08T18:16:02.724Z,95129.28
2023-05-08T18:18:38.475Z,95133.81
2023-05-08T18:21:09.357Z,95137.28
2023-05-08T18:23:38.964Z,95137.56
2023-05-08T18:26:17.124Z,95137.28
2023-05-08T18:28:50.672Z,95141.28
2023-05-08T18:31:24.439Z,95145.78
2023-05-08T18:33:58.406Z,95150.06
2023-05-08T18:36:27.681Z,95154.06
2023-05-08T18:38:57.738Z,95164.47
2023-05-08T18:41:27.350Z,95162.56
2023-05-08T18:44:01.648Z,95165.75
2023-05-08T18:46:31.131Z,95165.75
2023-05-08T18:49:03.238Z,95170.84
2023-05-08T18:51:36.537Z,95173.47
2023-05-08T18:54:09.095Z,95177.19
2023-05-08T18:56:41.481Z,95182.44
2023-05-08T18:59:12.744Z,95186.97
2023-05-08T19:01:42.153Z,95183.75
2023-05-08T19:04:11.609Z,95183.75
2023-05-08T19:06:42.446Z,95188.13
2023-05-08T19:09:12.368Z,95193.25
2023-05-08T19:11:49.424Z,95192.19
2023-05-08T19:14:33.477Z,95187.41
2023-05-08T19:17:06.261Z,95191.66
2023-05-08T19:19:42.171Z,95203.59
2023-05-08T19:22:13.051Z,95201.75
2023-05-08T19:24:50.692Z,95202.53
2023-05-08T19:27:20.347Z,95198.94
2023-05-08T19:29:51.208Z,95198.28
2023-05-08T19:32:21.084Z,95205.06
2023-05-08T19:34:50.461Z,95194.97
2023-05-08T19:37:21.977Z,95196.56
2023-05-08T19:39:57.298Z,95195.13
2023-05-08T19:42:31.020Z,95199.00
2023-05-08T19:45:04.885Z,95202.94
2023-05-08T19:47:36.033Z,95204.78
2023-05-08T19:50:06.537Z,95202.16
2023-05-08T19:52:40.873Z,95209.06
2023-05-08T19:55:16.238Z,95212.47
2023-05-08T19:57:52.375Z,95201.53
2023-05-08T20:00:22.956Z,95207.59
2023-05-08T20:02:52.235Z,95204.69
2023-05-08T20:05:30.959Z,95201.56
2023-05-08T20:08:00.162Z,95209.28
2023-05-08T20:10:30.773Z,95204.22
2023-05-08T20:13:00.047Z,95203.44
2023-05-08T20:15:31.104Z,95199.94
2023-05-08T20:18:00.543Z,95201.00
2023-05-08T20:20:31.012Z,95207.16
2023-05-08T20:23:03.672Z,95209.31
2023-05-08T20:25:32.966Z,95197.28
2023-05-08T20:28:02.078Z,95205.53
2023-05-08T20:30:33.067Z,95195.47
2023-05-08T20:33:05.337Z,95197.78
2023-05-08T20:35:35.672Z,95194.94
2023-05-08T20:38:06.551Z,95195.19
2023-05-08T20:40:36.686Z,95194.66
2023-05-08T20:43:05.863Z,95197.59
2023-05-08T20:45:38.838Z,95189.78
2023-05-08T20:48:08.020Z,95196.53
2023-05-08T20:50:37.372Z,95195.72
2023-05-08T20:53:06.532Z,95198.38
2023-05-08T20:55:35.763Z,95194.88
2023-05-08T20:58:05.182Z,95195.72
2023-05-08T21:00:35.829Z,95194.63
2023-05-08T21:03:05.267Z,95189.84
2023-05-08T21:05:34.468Z,95188.72
2023-05-08T21:08:06.529Z,95192.69
2023-05-08T21:10:37.395Z,95189.78
2023-05-08T21:13:06.958Z,95192.94
2023-05-08T21:15:37.660Z,95192.09
2023-05-08T21:18:08.038Z,95190.47
2023-05-08T21:20:37.094Z,95194.75
2023-05-08T21:23:06.172Z,95185.63
2023-05-08T21:25:35.647Z,95189.09
2023-05-08T21:28:04.756Z,95191.97
2023-05-08T21:30:33.822Z,95191.47
2023-05-08T21:33:04.539Z,95192.47
2023-05-08T21:35:33.630Z,95182.66
2023-05-08T21:38:02.734Z,95188.97
2023-05-08T21:40:32.157Z,95192.47
2023-05-08T21:43:01.795Z,95197.16
2023-05-08T21:45:31.458Z,95194.00
2023-05-08T21:48:01.526Z,95194.88
2023-05-08T21:50:32.245Z,95191.16
2023-05-08T21:53:01.710Z,95191.47
2023-05-08T21:55:32.270Z,95185.69
2023-05-08T21:58:01.500Z,95184.88
2023-05-08T22:00:30.704Z,95182.47
2023-05-08T22:02:59.956Z,95184.28
2023-05-08T22:05:29.080Z,95179.19
2023-05-08T22:07:59.856Z,95173.00
2023-05-08T22:10:28.770Z,95179.91
2023-05-08T22:12:57.795Z,95185.13
2023-05-08T22:15:30.229Z,95181.78
2023-05-08T22:18:00.831Z,95185.31
2023-05-08T22:20:31.423Z,95186.91
2023-05-08T22:23:01.943Z,95173.66
2023-05-08T22:25:31.032Z,95177.44
2023-05-08T22:28:00.165Z,95184.13
2023-05-08T22:30:29.563Z,95181.47
2023-05-08T22:32:59.685Z,95176.13
2023-05-08T22:35:29.077Z,95179.31
2023-05-08T22:37:58.702Z,95186.91
2023-05-08T22:40:30.259Z,95187.09
2023-05-08T22:43:00.350Z,95174.13
2023-05-08T22:45:29.906Z,95183.63
2023-05-08T22:47:59.410Z,95184.41
2023-05-08T22:50:28.576Z,95180.13
2023-05-08T22:52:57.914Z,95186.03
2023-05-08T22:55:26.961Z,95181.06
2023-05-08T22:57:57.488Z,95186.59
2023-05-08T23:00:26.671Z,95185.13
2023-05-08T23:02:56.047Z,95188.53
2023-05-08T23:05:25.543Z,95185.38
2023-05-08T23:07:54.694Z,95181.94
2023-05-08T23:10:23.931Z,95182.94
2023-05-08T23:12:53.145Z,95186.41
2023-05-08T23:15:23.909Z,95181.94
2023-05-08T23:17:53.643Z,95182.53
2023-05-08T23:20:22.699Z,95176.63
2023-05-08T23:22:51.819Z,95181.66
2023-05-08T23:25:21.178Z,95182.94
2023-05-08T23:27:50.217Z,95182.97
2023-05-08T23:30:19.391Z,95182.03
2023-05-08T23:32:49.935Z,95174.66
2023-05-08T23:35:19.315Z,95166.78
2023-05-08T23:37:48.373Z,95175.75
2023-05-08T23:40:18.661Z,95170.44
2023-05-08T23:42:47.800Z,95163.91
2023-05-08T23:45:17.070Z,95165.84
2023-05-08T23:47:46.750Z,95162.97
2023-05-08T23:50:17.400Z,95158.34
2023-05-08T23:52:46.574Z,95162.56
2023-05-08T23:55:16.045Z,95156.91
2023-05-08T23:57:45.198Z,95160.31
